createdAt,value
2023-05-09T00:02:02.844Z,35.00
2023-05-09T00:04:30.143Z,34.40
2023-05-09T00:06:56.590Z,35.95
2023-05-09T00:09:22.969Z,34.00
2023-05-09T00:11:49.586Z,35.33
2023-05-09T00:14:18.256Z,34.28
2023-05-09T00:16:45.424Z,32.30
2023-05-09T00:19:12.968Z,31.90
2023-05-09T00:21:39.454Z,32.58
2023-05-09T00:24:06.277Z,32.67
2023-05-09T00:26:32.738Z,32.50
2023-05-09T00:28:59.732Z,35.25
2023-05-09T00:31:26.286Z,31.00
2023-05-09T00:33:53.992Z,30.58
2023-05-09T00:36:20.475Z,31.65
2023-05-09T00:38:47.268Z,28.88
2023-05-09T00:41:13.736Z,28.15
2023-05-09T00:43:40.185Z,30.65
2023-05-09T00:46:06.931Z,31.30
2023-05-09T00:48:33.503Z,31.13
2023-05-09T00:51:00.010Z,29.90
2023-05-09T00:53:26.655Z,27.38
2023-05-09T00:55:55.656Z,29.90
2023-05-09T00:58:22.249Z,32.15
2023-05-09T01:00:48.780Z,29.95
2023-05-09T01:03:15.737Z,32.80
2023-05-09T01:06:11.069Z,28.80
2023-05-09T01:09:02.050Z,28.33
2023-05-09T01:11:34.446Z,29.67
2023-05-09T01:14:12.974Z,30.63
2023-05-09T01:16:43.622Z,30.42
2023-05-09T01:19:38.314Z,30.65
2023-05-09T01:22:08.957Z,31.20
2023-05-09T01:24:50.635Z,35.13
2023-05-09T01:27:50.716Z,35.30
2023-05-09T01:30:18.676Z,31.05
2023-05-09T01:32:49.697Z,29.45
2023-05-09T01:35:17.300Z,30.33
2023-05-09T01:37:48.947Z,32.00
2023-05-09T01:40:17.523Z,31.58
2023-05-09T01:42:48.524Z,32.58
2023-05-09T01:45:17.626Z,30.13
2023-05-09T01:47:44.745Z,28.95
2023-05-09T01:50:12.618Z,32.75
2023-05-09T01:52:41.497Z,28.58
2023-05-09T01:55:09.924Z,35.22
2023-05-09T01:57:38.400Z,35.67
2023-05-09T02:00:07.895Z,34.08
2023-05-09T02:02:40.312Z,39.83
2023-05-09T02:05:09.873Z,32.88
2023-05-09T02:07:37.128Z,35.20
2023-05-09T02:10:04.861Z,38.90
2023-05-09T02:12:31.457Z,34.35
2023-05-09T02:14:57.995Z,36.40
2023-05-09T02:17:24.613Z,34.53
2023-05-09T02:19:51.063Z,37.08
2023-05-09T02:22:17.826Z,37.35
2023-05-09T02:24:45.504Z,37.80
2023-05-09T02:27:12.892Z,38.72
2023-05-09T02:29:44.370Z,36.17
2023-05-09T02:32:16.548Z,36.65
2023-05-09T02:34:44.752Z,38.33
2023-05-09T02:37:11.524Z,35.90
2023-05-09T02:39:38.097Z,35.10
2023-05-09T02:42:10.377Z,37.78
2023-05-09T02:44:37.360Z,38.53
2023-05-09T02:47:06.828Z,39.65
2023-05-09T02:49:34.067Z,40.42
2023-05-09T02:52:02.796Z,43.65
2023-05-09T02:54:29.648Z,41.25
2023-05-09T02:56:56.326Z,41.42
2023-05-09T02:59:22.782Z,42.03
2023-05-09T03:01:49.630Z,42.97
2023-05-09T03:04:16.555Z,41.20
2023-05-09T03:06:43.222Z,39.67
2023-05-09T03:09:10.125Z,45.05
2023-05-09T03:11:37.136Z,39.42
2023-05-09T03:14:04.200Z,42.83
2023-05-09T03:16:31.102Z,41.83
2023-05-09T03:18:58.201Z,44.67
2023-05-09T03:21:24.701Z,45.03
2023-05-09T03:23:51.276Z,42.75
2023-05-09T03:26:17.835Z,40.97
2023-05-09T03:28:44.715Z,43.47
2023-05-09T03:31:11.236Z,43.42
2023-05-09T03:33:37.689Z,41.00
2023-05-09T03:36:05.268Z,41.67
2023-05-09T03:38:31.913Z,39.88
2023-05-09T03:40:58.768Z,41.50
2023-05-09T03:43:26.291Z,41.17
2023-05-09T03:45:52.764Z,40.35
2023-05-09T03:48:19.219Z,43.90
2023-05-09T03:50:50.099Z,48.95
2023-05-09T03:53:16.678Z,50.22
2023-05-09T03:55:45.529Z,42.33
2023-05-09T03:58:13.563Z,43.97
2023-05-09T04:00:42.223Z,43.42
2023-05-09T04:03:14.537Z,48.00
2023-05-09T04:05:45.662Z,46.03
2023-05-09T04:08:20.812Z,39.80
2023-05-09T04:10:47.506Z,44.13
2023-05-09T04:13:14.076Z,42.17
2023-05-09T04:15:41.034Z,41.80
2023-05-09T04:18:07.731Z,44.85
2023-05-09T04:20:34.421Z,41.55
2023-05-09T04:23:01.452Z,42.42
2023-05-09T04:25:29.398Z,46.10
2023-05-09T04:27:56.607Z,43.55
2023-05-09T04:30:23.776Z,44.35
2023-05-09T04:32:50.567Z,49.15
2023-05-09T04:35:19.772Z,42.00
2023-05-09T04:37:48.488Z,44.75
2023-05-09T04:40:14.989Z,48.03
2023-05-09T04:42:51.891Z,50.38
2023-05-09T04:45:21.844Z,49.10
2023-05-09T04:47:48.361Z,44.78
2023-05-09T04:50:14.808Z,45.00
2023-05-09T04:52:41.243Z,49.35
2023-05-09T04:55:08.242Z,43.33
2023-05-09T04:57:38.962Z,49.78
2023-05-09T05:00:11.339Z,46.13
2023-05-09T05:02:38.204Z,44.22
2023-05-09T05:05:13.333Z,47.28
2023-05-09T05:07:42.634Z,42.50
2023-05-09T05:10:11.312Z,45.22
2023-05-09T05:12:40.032Z,45.70
2023-05-09T05:15:09.795Z,45.60
2023-05-09T05:17:37.305Z,46.72
2023-05-09T05:20:06.639Z,44.80
2023-05-09T05:22:33.519Z,44.08
2023-05-09T05:25:00.042Z,44.72
2023-05-09T05:27:26.901Z,42.63
2023-05-09T05:29:53.593Z,42.17
2023-05-09T05:32:20.616Z,43.50
2023-05-09T05:34:47.585Z,41.88
2023-05-09T05:37:14.377Z,37.78
2023-05-09T05:39:41.757Z,42.90
2023-05-09T05:42:08.635Z,43.55
2023-05-09T05:44:35.429Z,41.78
2023-05-09T05:47:02.011Z,42.80
2023-05-09T05:49:28.498Z,42.58
2023-05-09T05:51:54.976Z,43.63
2023-05-09T05:54:22.196Z,40.88
2023-05-09T05:56:48.976Z,39.60
2023-05-09T05:59:16.274Z,42.53
2023-05-09T06:01:43.328Z,37.08
2023-05-09T06:04:10.258Z,37.55
2023-05-09T06:06:37.013Z,44.75
2023-05-09T06:09:03.473Z,37.03
2023-05-09T06:11:30.022Z,39.03
2023-05-09T06:13:56.505Z,37.70
2023-05-09T06:16:23.686Z,37.90
2023-05-09T06:18:52.662Z,36.70
2023-05-09T06:21:21.220Z,37.57
2023-05-09T06:24:04.258Z,36.63
2023-05-09T06:26:32.795Z,38.42
2023-05-09T06:28:59.289Z,33.83
2023-05-09T06:31:26.188Z,37.13
2023-05-09T06:33:53.078Z,36.13
2023-05-09T06:36:19.671Z,34.35
2023-05-09T06:38:46.273Z,32.83
2023-05-09T06:41:12.737Z,35.22
2023-05-09T06:43:39.176Z,35.60
2023-05-09T06:46:05.773Z,34.63
2023-05-09T06:48:32.278Z,34.05
2023-05-09T06:50:58.929Z,32.75
2023-05-09T06:53:25.394Z,33.90
2023-05-09T06:55:51.803Z,34.20
2023-05-09T06:58:18.264Z,34.13
2023-05-09T07:00:44.781Z,32.65
2023-05-09T07:03:11.692Z,36.30
2023-05-09T07:05:38.261Z,35.75
2023-05-09T07:08:04.704Z,35.40
2023-05-09T07:10:31.363Z,35.05
2023-05-09T07:12:58.054Z,35.50
2023-05-09T07:15:37.184Z,34.95
2023-05-09T07:18:07.482Z,36.10
2023-05-09T07:20:33.918Z,38.03
2023-05-09T07:23:00.529Z,41.05
2023-05-09T07:25:26.991Z,39.75
2023-05-09T07:27:53.460Z,47.67
2023-05-09T07:30:19.968Z,37.53
2023-05-09T07:32:46.650Z,37.72
2023-05-09T07:35:13.356Z,35.97
2023-05-09T07:37:40.620Z,37.85
2023-05-09T07:40:07.718Z,36.95
2023-05-09T07:42:34.245Z,33.83
2023-05-09T07:45:00.785Z,37.67
2023-05-09T07:47:27.297Z,37.72
2023-05-09T07:49:53.752Z,36.75
2023-05-09T07:52:20.167Z,37.70
2023-05-09T07:54:46.615Z,38.97
2023-05-09T07:57:13.090Z,40.38
2023-05-09T07:59:39.524Z,42.45
2023-05-09T08:02:06.445Z,39.50
2023-05-09T08:04:33.008Z,41.70
2023-05-09T08:06:59.628Z,41.72
2023-05-09T08:09:26.569Z,42.38
2023-05-09T08:11:53.050Z,39.67
2023-05-09T08:14:19.496Z,37.78
2023-05-09T08:16:45.962Z,42.30
2023-05-09T08:19:12.412Z,39.45
2023-05-09T08:21:38.837Z,39.80
2023-05-09T08:24:07.892Z,40.60
2023-05-09T08:26:35.209Z,38.70
2023-05-09T08:29:01.983Z,38.83
2023-05-09T08:31:28.761Z,39.05
2023-05-09T08:33:55.326Z,37.90
2023-05-09T08:36:21.762Z,34.63
2023-05-09T08:38:49.449Z,36.55
2023-05-09T08:41:16.325Z,36.00
2023-05-09T08:43:43.640Z,37.58
2023-05-09T08:46:11.634Z,35.72
2023-05-09T08:48:38.771Z,41.55
2023-05-09T08:51:06.890Z,37.42
2023-05-09T08:53:34.277Z,36.42
2023-05-09T08:56:03.626Z,38.08
2023-05-09T08:58:31.428Z,33.30
2023-05-09T09:00:59.022Z,37.80
2023-05-09T09:03:26.291Z,37.72
2023-05-09T09:05:54.774Z,35.00
2023-05-09T09:08:22.894Z,36.90
2023-05-09T09:10:49.771Z,34.15
2023-05-09T09:13:17.860Z,35.33
2023-05-09T09:15:46.494Z,36.50
2023-05-09T09:18:18.093Z,40.13
2023-05-09T09:20:59.733Z,39.35
2023-05-09T09:23:27.225Z,34.90
2023-05-09T09:26:03.016Z,38.80
2023-05-09T09:28:29.673Z,35.30
2023-05-09T09:30:56.314Z,34.47
2023-05-09T09:33:24.188Z,36.90
2023-05-09T09:35:52.226Z,33.80
2023-05-09T09:38:20.636Z,32.53
2023-05-09T09:40:57.688Z,32.28
2023-05-09T09:43:31.326Z,33.20
2023-05-09T09:46:01.716Z,31.33
2023-05-09T09:48:33.617Z,30.88
2023-05-09T09:51:11.205Z,34.50
2023-05-09T09:53:41.736Z,34.60
2023-05-09T09:56:08.345Z,28.27
2023-05-09T09:58:34.989Z,32.30
2023-05-09T10:01:20.790Z,30.20
2023-05-09T10:03:47.937Z,30.83
2023-05-09T10:06:16.449Z,29.25
2023-05-09T10:08:46.750Z,28.10
2023-05-09T10:11:13.748Z,27.92
2023-05-09T10:13:40.521Z,28.25
2023-05-09T10:16:09.019Z,26.90
2023-05-09T10:18:36.524Z,24.13
2023-05-09T10:21:05.527Z,23.75
2023-05-09T10:23:37.016Z,26.85
2023-05-09T10:26:28.975Z,28.83
2023-05-09T10:28:57.384Z,28.85
2023-05-09T10:31:27.894Z,28.83
2023-05-09T10:33:58.691Z,25.40
2023-05-09T10:36:25.363Z,25.65
2023-05-09T10:38:54.943Z,25.65
2023-05-09T10:41:22.214Z,22.52
2023-05-09T10:43:48.821Z,28.75
2023-05-09T10:46:16.284Z,25.63
2023-05-09T10:48:43.589Z,27.75
2023-05-09T10:51:10.649Z,24.60
2023-05-09T10:53:43.551Z,23.42
2023-05-09T10:56:22.857Z,23.27
2023-05-09T10:58:49.296Z,24.67
2023-05-09T11:01:36.844Z,24.40
2023-05-09T11:04:10.959Z,23.30
2023-05-09T11:06:53.998Z,24.90
2023-05-09T11:09:32.851Z,26.77
2023-05-09T11:12:05.817Z,25.63
2023-05-09T11:14:44.709Z,21.33
2023-05-09T11:17:12.634Z,24.45
2023-05-09T11:19:47.854Z,15.68
2023-05-09T11:22:21.236Z,19.92
2023-05-09T11:24:49.539Z,21.67
2023-05-09T11:27:16.783Z,22.75
2023-05-09T11:29:45.652Z,23.13
2023-05-09T11:32:14.557Z,21.42
2023-05-09T11:34:44.437Z,23.33
2023-05-09T11:37:17.514Z,25.40
2023-05-09T11:39:58.824Z,35.50
2023-05-09T11:42:29.431Z,15.25
2023-05-09T11:44:57.643Z,13.65
2023-05-09T11:47:25.113Z,22.40
2023-05-09T11:49:52.092Z,18.65
2023-05-09T11:52:19.937Z,18.63
2023-05-09T11:54:46.398Z,18.08
2023-05-09T11:57:17.274Z,18.17
2023-05-09T11:59:45.358Z,13.55
2023-05-09T12:02:12.033Z,21.23
2023-05-09T12:04:38.890Z,15.75
2023-05-09T12:07:05.681Z,14.90
2023-05-09T12:09:34.408Z,13.60
2023-05-09T12:12:01.332Z,13.88
2023-05-09T12:14:32.402Z,10.55
2023-05-09T12:16:58.832Z,12.05
2023-05-09T12:19:26.167Z,11.85
2023-05-09T12:21:59.124Z,7.57
2023-05-09T12:24:26.971Z,8.80
2023-05-09T12:26:57.707Z,8.25
2023-05-09T12:29:25.292Z,11.50
2023-05-09T12:31:55.383Z,13.90
2023-05-09T12:34:22.033Z,13.63
2023-05-09T12:36:50.853Z,10.20
2023-05-09T12:39:22.912Z,9.70
2023-05-09T12:42:00.925Z,12.02
2023-05-09T12:44:29.725Z,11.38
2023-05-09T12:47:01.470Z,11.15
2023-05-09T12:49:29.285Z,10.13
2023-05-09T12:51:58.094Z,10.38
2023-05-09T12:54:28.976Z,8.45
2023-05-09T12:59:24.796Z,9.25
2023-05-09T13:02:01.864Z,10.20
2023-05-09T13:04:28.970Z,9.30
2023-05-09T13:06:57.692Z,8.98
2023-05-09T13:09:26.199Z,9.85
2023-05-09T13:11:53.657Z,9.43
2023-05-09T13:14:21.819Z,10.52
2023-05-09T13:16:48.514Z,10.32
2023-05-09T13:19:15.003Z,7.53
2023-05-09T13:21:41.447Z,7.20
2023-05-09T13:24:08.114Z,7.10
2023-05-09T13:26:34.631Z,7.13
2023-05-09T13:29:01.123Z,7.60
2023-05-09T13:31:27.752Z,8.63
2023-05-09T13:33:54.193Z,4.72
2023-05-09T13:36:20.999Z,5.57
2023-05-09T13:38:47.686Z,6.45
2023-05-09T13:41:19.955Z,5.13
2023-05-09T13:43:46.771Z,6.65
2023-05-09T13:46:13.552Z,4.28
2023-05-09T13:48:40.215Z,5.35
2023-05-09T13:51:07.836Z,4.07
2023-05-09T13:53:35.344Z,4.85
2023-05-09T13:56:03.300Z,3.67
2023-05-09T13:58:29.745Z,6.05
2023-05-09T14:00:56.177Z,7.38
2023-05-09T14:03:22.697Z,6.15
2023-05-09T14:05:49.431Z,6.95
2023-05-09T14:08:16.613Z,6.10
2023-05-09T14:10:44.467Z,5.28
2023-05-09T14:13:12.433Z,4.30
2023-05-09T14:15:40.180Z,4.43
2023-05-09T14:18:06.780Z,7.65
2023-05-09T14:20:35.869Z,7.28
2023-05-09T14:23:02.302Z,4.88
2023-05-09T14:25:29.324Z,4.22
2023-05-09T14:27:55.754Z,4.10
2023-05-09T14:30:22.995Z,3.60
2023-05-09T14:32:49.477Z,5.47
2023-05-09T14:35:16.181Z,4.70
2023-05-09T14:37:42.805Z,4.40
2023-05-09T14:40:09.740Z,3.33
2023-05-09T14:42:36.990Z,3.50
2023-05-09T14:45:04.724Z,4.45
2023-05-09T14:47:31.353Z,6.80
2023-05-09T14:49:57.906Z,4.22
2023-05-09T14:52:24.402Z,4.72
2023-05-09T14:54:50.865Z,5.05
2023-05-09T14:57:17.345Z,4.88
2023-05-09T14:59:43.873Z,5.47
2023-05-09T15:02:10.332Z,5.82
2023-05-09T15:04:36.808Z,5.07
2023-05-09T15:07:03.239Z,5.75
2023-05-09T15:09:29.686Z,6.35
2023-05-09T15:11:56.402Z,6.03
2023-05-09T15:14:22.823Z,6.13
2023-05-09T15:16:51.529Z,7.05
2023-05-09T15:19:18.218Z,5.53
2023-05-09T15:21:44.971Z,9.88
2023-05-09T15:24:12.065Z,8.80
2023-05-09T15:26:38.506Z,8.82
2023-05-09T15:29:04.996Z,10.38
2023-05-09T15:31:32.760Z,9.40
2023-05-09T15:33:59.792Z,9.20
2023-05-09T15:36:29.944Z,9.15
2023-05-09T15:38:56.371Z,11.20
2023-05-09T15:41:23.167Z,8.07
2023-05-09T15:43:49.811Z,7.20
2023-05-09T15:46:16.982Z,10.18
2023-05-09T15:48:43.549Z,9.85
2023-05-09T15:51:10.103Z,11.77
2023-05-09T15:53:36.735Z,11.82
2023-05-09T15:56:03.720Z,8.40
2023-05-09T15:58:30.637Z,7.57
2023-05-09T16:00:57.093Z,11.38
2023-05-09T16:03:24.813Z,9.32
2023-05-09T16:05:52.165Z,11.95
2023-05-09T16:08:18.880Z,16.40
2023-05-09T16:10:48.900Z,10.80
2023-05-09T16:13:17.782Z,10.97
2023-05-09T16:15:45.362Z,8.65
2023-05-09T16:18:12.133Z,9.18
2023-05-09T16:20:38.679Z,10.18
2023-05-09T16:23:05.162Z,10.52
2023-05-09T16:25:33.355Z,8.82
2023-05-09T16:28:01.003Z,8.25
2023-05-09T16:30:27.465Z,12.40
2023-05-09T16:32:54.020Z,11.02
2023-05-09T16:35:20.518Z,13.05
2023-05-09T16:37:47.229Z,13.25
2023-05-09T16:40:14.928Z,15.10
2023-05-09T16:42:42.927Z,13.13
2023-05-09T16:45:09.937Z,13.70
2023-05-09T16:47:36.824Z,16.65
2023-05-09T16:50:04.620Z,16.25
2023-05-09T16:52:31.231Z,17.17
2023-05-09T16:54:59.293Z,16.30
2023-05-09T16:57:26.023Z,13.90
2023-05-09T16:59:53.397Z,17.50
2023-05-09T17:02:19.939Z,19.23
2023-05-09T17:04:46.662Z,13.95
2023-05-09T17:07:14.411Z,15.35
2023-05-09T17:09:41.097Z,15.10
2023-05-09T17:12:07.552Z,18.02
2023-05-09T17:14:34.020Z,14.82
2023-05-09T17:17:00.585Z,15.77
2023-05-09T17:19:27.091Z,11.23
2023-05-09T17:21:55.988Z,13.13
2023-05-09T17:24:22.453Z,16.83
2023-05-09T17:26:50.125Z,11.68
2023-05-09T17:29:16.610Z,13.73
2023-05-09T17:31:43.066Z,12.60
2023-05-09T17:34:09.573Z,12.68
2023-05-09T17:36:36.208Z,11.90
2023-05-09T17:39:02.658Z,13.95
2023-05-09T17:41:29.107Z,14.73
2023-05-09T17:43:57.362Z,21.73
2023-05-09T17:46:24.585Z,14.13
2023-05-09T17:48:51.309Z,17.50
2023-05-09T17:51:17.901Z,13.43
2023-05-09T17:53:44.322Z,15.25
2023-05-09T17:56:10.779Z,17.30
2023-05-09T17:58:37.215Z,16.50
2023-05-09T18:01:03.753Z,9.73
2023-05-09T18:03:32.177Z,10.70
2023-05-09T18:06:00.227Z,11.20
2023-05-09T18:08:26.758Z,12.27
2023-05-09T18:10:56.326Z,12.10
2023-05-09T18:13:23.151Z,10.43
2023-05-09T18:15:49.798Z,11.57
2023-05-09T18:18:16.302Z,9.50
2023-05-09T18:20:42.823Z,11.55
2023-05-09T18:23:09.313Z,13.10
2023-05-09T18:25:35.804Z,12.73
2023-05-09T18:28:02.444Z,10.15
2023-05-09T18:30:29.029Z,10.50
2023-05-09T18:33:00.081Z,9.50
2023-05-09T18:37:53.382Z,3.47
2023-05-09T18:40:20.017Z,5.80
2023-05-09T18:42:46.586Z,5.97
2023-05-09T18:45:13.243Z,8.95
2023-05-09T18:47:39.767Z,7.28
2023-05-09T18:50:07.249Z,6.22
2023-05-09T18:52:34.376Z,5.28
2023-05-09T18:55:00.901Z,7.10
2023-05-09T18:57:28.276Z,5.93
2023-05-09T18:59:55.017Z,8.18
2023-05-09T19:02:22.346Z,7.45
2023-05-09T19:04:50.456Z,9.57
2023-05-09T19:07:17.205Z,7.60
2023-05-09T19:09:43.720Z,9.82
2023-05-09T19:12:10.227Z,7.93
2023-05-09T19:14:37.876Z,7.95
2023-05-09T19:17:07.762Z,10.25
2023-05-09T19:19:34.503Z,9.45
2023-05-09T19:22:01.724Z,11.95
2023-05-09T19:24:28.245Z,9.18
2023-05-09T19:26:54.747Z,10.77
2023-05-09T19:29:21.207Z,9.90
2023-05-09T19:31:47.709Z,11.77
2023-05-09T19:34:14.236Z,9.50
2023-05-09T19:36:40.755Z,7.40
2023-05-09T19:39:08.834Z,12.65
2023-05-09T19:41:35.427Z,11.98
2023-05-09T19:44:02.165Z,8.48
2023-05-09T19:46:28.710Z,6.95
2023-05-09T19:48:55.245Z,6.05
2023-05-09T19:51:21.752Z,7.57
2023-05-09T19:53:48.235Z,6.40
2023-05-09T19:56:14.708Z,5.97
2023-05-09T19:58:41.375Z,5.97
2023-05-09T20:01:08.044Z,7.60
2023-05-09T20:03:38.523Z,7.82
2023-05-09T20:06:05.758Z,10.07
2023-05-09T20:08:32.240Z,6.68
2023-05-09T20:11:00.078Z,7.72
2023-05-09T20:13:27.434Z,7.03
2023-05-09T20:15:54.013Z,7.03
2023-05-09T20:18:20.539Z,7.05
2023-05-09T20:20:47.001Z,10.95
2023-05-09T20:23:13.548Z,9.13
2023-05-09T20:25:40.286Z,9.27
2023-05-09T20:28:06.824Z,8.45
2023-05-09T20:30:33.386Z,8.15
2023-05-09T20:33:01.069Z,7.60
2023-05-09T20:35:27.865Z,8.07
2023-05-09T20:37:54.613Z,7.88
2023-05-09T20:40:21.110Z,9.63
2023-05-09T20:42:47.560Z,6.30
2023-05-09T20:45:14.074Z,6.15
2023-05-09T20:47:40.627Z,7.38
2023-05-09T20:50:07.736Z,9.38
2023-05-09T20:52:34.182Z,7.47
2023-05-09T20:55:01.223Z,10.00
2023-05-09T20:57:27.781Z,6.47
2023-05-09T20:59:54.239Z,8.88
2023-05-09T21:02:20.843Z,7.60
2023-05-09T21:04:47.311Z,5.15
2023-05-09T21:07:13.814Z,6.85
2023-05-09T21:09:41.097Z,7.88
2023-05-09T21:12:09.273Z,7.13
2023-05-09T21:14:37.497Z,7.68
2023-05-09T21:17:04.010Z,6.05
2023-05-09T21:19:30.587Z,6.18
2023-05-09T21:21:58.300Z,6.13
2023-05-09T21:24:24.792Z,9.13
2023-05-09T21:26:51.320Z,5.45
2023-05-09T21:29:17.733Z,3.53
2023-05-09T21:31:44.169Z,4.47
2023-05-09T21:34:10.764Z,3.25
2023-05-09T21:36:38.292Z,3.72
2023-05-09T21:39:08.830Z,3.40
2023-05-09T21:41:36.304Z,6.18
2023-05-09T21:44:03.158Z,2.90
2023-05-09T21:46:33.248Z,3.55
2023-05-09T21:49:00.753Z,3.42
2023-05-09T21:51:28.374Z,3.10
2023-05-09T21:53:54.862Z,5.28
2023-05-09T21:56:22.852Z,2.83
2023-05-09T21:58:49.325Z,3.67
2023-05-09T22:01:19.391Z,4.20
2023-05-09T22:03:46.026Z,3.30
2023-05-09T22:06:13.407Z,4.38
2023-05-09T22:08:39.849Z,3.75
2023-05-09T22:11:06.242Z,5.30
2023-05-09T22:13:32.840Z,6.93
2023-05-09T22:15:59.284Z,3.60
2023-05-09T22:18:27.088Z,4.82
2023-05-09T22:20:53.554Z,2.80
2023-05-09T22:23:19.953Z,4.93
2023-05-09T22:25:46.403Z,5.40
2023-05-09T22:28:12.850Z,4.13
2023-05-09T22:30:39.307Z,4.13
2023-05-09T22:33:05.818Z,5.00
2023-05-09T22:35:32.323Z,5.07
2023-05-09T22:37:58.787Z,5.40
2023-05-09T22:40:26.348Z,5.63
2023-05-09T22:42:53.442Z,7.55
2023-05-09T22:45:20.692Z,6.32
2023-05-09T22:47:47.353Z,6.63
2023-05-09T22:50:13.974Z,6.57
2023-05-09T22:52:40.638Z,5.30
2023-05-09T22:55:07.461Z,6.20
2023-05-09T22:57:33.935Z,6.15
2023-05-09T23:00:00.315Z,6.82
2023-05-09T23:02:26.980Z,6.30
2023-05-09T23:04:53.531Z,5.90
2023-05-09T23:07:20.087Z,8.20
2023-05-09T23:09:46.608Z,13.45
2023-05-09T23:12:13.152Z,6.50
2023-05-09T23:14:39.750Z,11.68
2023-05-09T23:17:06.239Z,8.60
2023-05-09T23:19:33.191Z,6.55
2023-05-09T23:21:59.683Z,6.93
2023-05-09T23:24:26.155Z,6.75
2023-05-09T23:26:53.664Z,6.15
2023-05-09T23:29:20.109Z,6.85
2023-05-09T23:31:46.972Z,9.32
2023-05-09T23:34:13.760Z,9.00
2023-05-09T23:36:40.166Z,7.57
2023-05-09T23:39:06.633Z,8.75
2023-05-09T23:41:33.267Z,9.77
2023-05-09T23:44:01.909Z,10.13
2023-05-09T23:46:28.768Z,7.35
2023-05-09T23:48:56.218Z,6.80
2023-05-09T23:51:22.756Z,7.75
2023-05-09T23:53:49.364Z,8.23
2023-05-09T23:56:16.063Z,8.02
2023-05-09T23:58:43.102Z,7.88
